Time;durP1;ratioP1;P1;durP2;ratioP2;P2;SDS_P1;SDS_P2;PMS_P1;PMS_P2;Temp;Humidity;BMP_temperature;BMP_pressure;BME280_temperature;BME280_humidity;BME280_pressure;Samples;Min_cycle;Max_cycle;Signal;HPM_P1;HPM_P2
2021/03/17 00:01:07;;;;;;;9.00;3.10;;;1.70;99.90;;;;;;5013212;28;20263;-62
2021/03/17 00:03:34;;;;;;;9.37;3.20;;;1.80;99.90;;;;;;5012577;28;20311;-62
2021/03/17 00:06:01;;;;;;;12.07;3.03;;;1.80;99.90;;;;;;5012750;28;20272;-63
2021/03/17 00:08:27;;;;;;;17.60;3.83;;;1.90;99.90;;;;;;5012815;28;20197;-62
2021/03/17 00:10:56;;;;;;;17.03;3.83;;;1.80;99.90;;;;;;5012686;28;20284;-65
2021/03/17 00:13:23;;;;;;;8.30;2.97;;;1.80;99.90;;;;;;5012556;28;20225;-62
2021/03/17 00:15:50;;;;;;;19.87;3.93;;;1.70;99.90;;;;;;5012395;28;20264;-65
2021/03/17 00:18:17;;;;;;;12.57;3.60;;;1.60;99.90;;;;;;5003756;28;20204;-62
2021/03/17 00:20:44;;;;;;;16.60;4.10;;;1.50;99.90;;;;;;4992621;28;20240;-62
2021/03/17 00:23:11;;;;;;;18.87;4.00;;;1.40;99.90;;;;;;4992466;28;20626;-63
2021/03/17 00:25:39;;;;;;;13.67;3.53;;;1.40;99.90;;;;;;4993349;28;20322;-61
2021/03/17 00:28:08;;;;;;;15.47;4.03;;;1.30;99.90;;;;;;5009188;28;20224;-62
2021/03/17 00:30:36;;;;;;;12.67;4.07;;;1.20;99.90;;;;;;4992431;28;20241;-61
2021/03/17 00:33:03;;;;;;;14.10;3.70;;;1.20;99.90;;;;;;4992403;28;20315;-62
2021/03/17 00:35:30;;;;;;;16.50;3.57;;;1.20;99.90;;;;;;4991838;28;20649;-63
2021/03/17 00:37:57;;;;;;;13.00;3.27;;;1.20;99.90;;;;;;4992221;28;20704;-64
2021/03/17 00:40:24;;;;;;;13.90;3.10;;;1.30;99.90;;;;;;5008533;28;20231;-62
2021/03/17 00:42:51;;;;;;;8.60;2.93;;;1.40;99.90;;;;;;5011958;28;20252;-61
2021/03/17 00:45:19;;;;;;;11.30;2.87;;;1.40;99.90;;;;;;5010567;28;20269;-63
2021/03/17 00:47:45;;;;;;;8.10;2.87;;;1.40;99.90;;;;;;5011855;28;20228;-63
2021/03/17 00:50:16;;;;;;;12.00;3.00;;;1.40;99.90;;;;;;5011727;28;20204;-63
2021/03/17 00:52:43;;;;;;;9.80;3.20;;;1.40;99.90;;;;;;5009383;28;20232;-62
2021/03/17 00:55:11;;;;;;;8.80;2.80;;;1.30;99.90;;;;;;5007103;28;20213;-62
2021/03/17 00:57:38;;;;;;;15.20;2.97;;;1.30;99.90;;;;;;5010912;28;20388;-62
2021/03/17 01:00:05;;;;;;;9.17;3.10;;;1.30;99.90;;;;;;5007956;28;20280;-62
2021/03/17 01:02:33;;;;;;;10.00;3.00;;;1.30;99.90;;;;;;5011631;28;20228;-62
2021/03/17 01:04:59;;;;;;;8.93;2.90;;;1.30;99.90;;;;;;5011610;28;20212;-63
2021/03/17 01:07:25;;;;;;;10.80;3.13;;;1.30;99.90;;;;;;5010675;28;20234;-64
2021/03/17 01:09:52;;;;;;;10.63;2.80;;;1.30;99.90;;;;;;5011587;28;20233;-64
2021/03/17 01:12:19;;;;;;;9.13;2.53;;;1.30;99.90;;;;;;5011269;28;20192;-64
2021/03/17 01:14:46;;;;;;;15.20;2.93;;;1.30;99.90;;;;;;5011387;28;20189;-64
2021/03/17 01:17:12;;;;;;;10.43;3.20;;;1.20;99.90;;;;;;5010761;28;20215;-63
2021/03/17 01:19:39;;;;;;;17.93;3.13;;;1.10;99.90;;;;;;5011308;28;20283;-63
2021/03/17 01:22:06;;;;;;;7.50;2.73;;;1.00;99.90;;;;;;4993166;28;20308;-65
2021/03/17 01:24:33;;;;;;;10.97;2.87;;;0.90;99.90;;;;;;4991429;28;20225;-63
2021/03/17 01:26:59;;;;;;;9.40;3.30;;;0.80;99.90;;;;;;4994318;28;20547;-62
2021/03/17 01:29:26;;;;;;;13.03;2.60;;;0.70;99.90;;;;;;5010621;28;20224;-62
2021/03/17 01:31:52;;;;;;;13.30;2.70;;;0.70;99.90;;;;;;5011287;28;20201;-62
2021/03/17 01:34:19;;;;;;;15.97;3.03;;;0.60;99.90;;;;;;5010599;28;20252;-63
2021/03/17 01:36:46;;;;;;;20.67;3.47;;;0.70;99.90;;;;;;5010497;28;20247;-63
2021/03/17 01:39:12;;;;;;;20.60;3.17;;;0.60;99.90;;;;;;5011291;28;20282;-63
2021/03/17 01:41:39;;;;;;;10.73;2.93;;;0.50;99.90;;;;;;5002247;28;20190;-63
2021/03/17 01:44:06;;;;;;;8.67;2.97;;;0.50;99.90;;;;;;4991315;28;20297;-62
2021/03/17 01:46:32;;;;;;;8.20;3.43;;;0.50;99.90;;;;;;5002320;28;20194;-62
2021/03/17 01:48:59;;;;;;;16.77;3.23;;;0.50;99.90;;;;;;4995526;28;20236;-62
2021/03/17 01:51:25;;;;;;;13.80;2.80;;;0.40;99.90;;;;;;5006988;28;20193;-63
2021/03/17 01:53:54;;;;;;;12.53;2.80;;;0.40;99.90;;;;;;5014376;28;20736;-62
2021/03/17 01:56:24;;;;;;;12.03;2.60;;;0.40;99.90;;;;;;5015012;28;20193;-62
2021/03/17 01:58:51;;;;;;;15.17;3.23;;;0.30;99.90;;;;;;5014562;28;20580;-62
2021/03/17 02:01:18;;;;;;;11.90;3.07;;;0.40;99.90;;;;;;5012978;28;20209;-62
2021/03/17 02:03:45;;;;;;;13.47;2.93;;;0.40;99.90;;;;;;4995041;28;20221;-62
2021/03/17 02:06:11;;;;;;;9.27;3.23;;;0.40;99.90;;;;;;4996454;28;20185;-62
2021/03/17 02:08:40;;;;;;;9.63;3.03;;;0.40;99.90;;;;;;4994545;28;20209;-62
2021/03/17 02:11:10;;;;;;;9.67;2.73;;;0.40;99.90;;;;;;5005785;28;20276;-63
2021/03/17 02:14:08;;;;;;;22.83;3.60;;;0.40;99.90;;;;;;5014230;28;20201;-61
2021/03/17 02:16:39;;;;;;;10.80;2.77;;;0.50;99.90;;;;;;4999183;28;20610;-62
2021/03/17 02:19:41;;;;;;;8.27;2.30;;;0.70;99.90;;;;;;4995135;28;20269;-61
2021/03/17 02:22:38;;;;;;;6.87;2.70;;;0.80;99.90;;;;;;5013340;28;20748;-62
2021/03/17 02:25:13;;;;;;;7.50;2.43;;;1.00;99.90;;;;;;4996822;28;20268;-61
2021/03/17 02:28:08;;;;;;;8.70;2.60;;;1.00;99.90;;;;;;5000226;28;20303;-62
2021/03/17 02:31:06;;;;;;;7.07;2.17;;;1.10;99.90;;;;;;5013241;28;20529;-61
2021/03/17 02:33:51;;;;;;;5.70;2.70;;;1.30;99.90;;;;;;5013786;28;20335;-61
2021/03/17 02:36:25;;;;;;;6.73;2.07;;;1.30;99.90;;;;;;5014267;28;20196;-61
2021/03/17 02:38:55;;;;;;;3.03;2.03;;;1.30;99.90;;;;;;5013440;28;20677;-62
2021/03/17 02:41:26;;;;;;;10.53;2.43;;;1.30;99.90;;;;;;5013817;28;20254;-62
2021/03/17 02:43:56;;;;;;;7.10;2.40;;;1.30;99.90;;;;;;5012770;28;20284;-62
2021/03/17 02:46:25;;;;;;;9.13;2.07;;;1.40;99.90;;;;;;4994663;28;20233;-61
2021/03/17 02:49:00;;;;;;;7.87;1.90;;;1.30;99.90;;;;;;5012551;28;20220;-62
2021/03/17 02:51:33;;;;;;;8.20;1.83;;;1.40;99.90;;;;;;5013437;28;20645;-62
2021/03/17 02:54:02;;;;;;;7.13;2.10;;;1.40;99.90;;;;;;4995404;28;20610;-61
2021/03/17 02:56:32;;;;;;;6.37;1.90;;;1.40;99.90;;;;;;4999887;28;20624;-61
2021/03/17 02:59:01;;;;;;;4.10;1.90;;;1.50;99.90;;;;;;5012375;28;20219;-61
2021/03/17 03:01:31;;;;;;;2.93;1.73;;;1.50;99.90;;;;;;5012245;28;20205;-61
2021/03/17 03:03:59;;;;;;;4.80;1.80;;;1.40;99.90;;;;;;4994210;28;20288;-62
2021/03/17 03:06:27;;;;;;;2.93;1.43;;;1.50;99.90;;;;;;4993843;28;20336;-61
2021/03/17 03:08:54;;;;;;;4.10;1.67;;;1.50;99.90;;;;;;4993836;28;20235;-62
2021/03/17 03:11:21;;;;;;;5.37;2.00;;;1.50;99.90;;;;;;5009402;28;20676;-62
2021/03/17 03:13:50;;;;;;;5.67;1.63;;;1.50;99.90;;;;;;4998441;28;20549;-61
2021/03/17 03:16:17;;;;;;;6.80;2.00;;;1.50;99.90;;;;;;5013416;28;20217;-62
2021/03/17 03:18:46;;;;;;;4.87;1.70;;;1.50;99.90;;;;;;5012644;28;20272;-61
2021/03/17 03:21:16;;;;;;;4.23;1.40;;;1.50;99.90;;;;;;5013083;28;20279;-61
2021/03/17 03:23:42;;;;;;;7.67;2.13;;;1.50;99.90;;;;;;4994737;28;20284;-62
2021/03/17 03:26:09;;;;;;;5.67;2.20;;;1.40;99.90;;;;;;5013127;28;20633;-62
2021/03/17 03:28:37;;;;;;;4.43;1.80;;;1.40;99.90;;;;;;5012438;28;20692;-60
2021/03/17 03:31:04;;;;;;;4.00;1.80;;;1.40;99.90;;;;;;5012965;28;20664;-62
2021/03/17 03:33:31;;;;;;;4.10;1.80;;;1.40;99.90;;;;;;5012808;28;20248;-62
2021/03/17 03:35:57;;;;;;;6.47;2.10;;;1.30;99.90;;;;;;5013108;28;20291;-62
2021/03/17 03:38:25;;;;;;;4.87;1.93;;;1.20;99.90;;;;;;5012161;28;20691;-63
2021/03/17 03:40:51;;;;;;;5.77;2.20;;;1.10;99.90;;;;;;5011885;28;20279;-62
2021/03/17 03:43:18;;;;;;;4.20;1.87;;;1.10;99.90;;;;;;5011776;28;20677;-63
2021/03/17 03:45:45;;;;;;;2.30;1.83;;;1.00;99.90;;;;;;4996155;28;20248;-61
2021/03/17 03:48:12;;;;;;;3.73;1.80;;;0.90;99.90;;;;;;4993522;28;20589;-61
2021/03/17 03:50:42;;;;;;;6.57;1.60;;;0.80;99.90;;;;;;4992845;28;20280;-61
2021/03/17 03:53:17;;;;;;;4.97;2.00;;;0.80;99.90;;;;;;5008338;28;20224;-61
2021/03/17 03:55:55;;;;;;;7.50;2.20;;;0.90;99.90;;;;;;5012586;28;20188;-61
2021/03/17 03:58:30;;;;;;;3.13;1.70;;;1.00;99.90;;;;;;4995911;28;20265;-61
2021/03/17 04:01:03;;;;;;;6.63;1.80;;;1.00;99.90;;;;;;4993347;28;20244;-61
2021/03/17 04:03:34;;;;;;;3.60;1.60;;;1.10;99.90;;;;;;5012613;28;20296;-61
2021/03/17 04:06:02;;;;;;;2.97;2.00;;;1.00;99.90;;;;;;5012101;28;20273;-62
2021/03/17 04:08:30;;;;;;;3.80;1.97;;;1.00;99.90;;;;;;5011301;28;20546;-62
2021/03/17 04:11:00;;;;;;;3.73;1.80;;;1.00;99.90;;;;;;5011584;28;20304;-61
2021/03/17 04:13:30;;;;;;;3.27;1.80;;;1.10;99.90;;;;;;4996673;28;20231;-62
2021/03/17 04:15:58;;;;;;;4.03;1.67;;;1.00;99.90;;;;;;5011437;28;20322;-62
2021/03/17 04:18:28;;;;;;;3.73;1.77;;;1.00;99.90;;;;;;5011568;28;20605;-61
2021/03/17 04:20:58;;;;;;;4.20;1.80;;;1.00;99.90;;;;;;5011518;28;20186;-62
2021/03/17 04:23:26;;;;;;;2.93;1.57;;;1.10;99.90;;;;;;5011966;28;20314;-62
2021/03/17 04:25:55;;;;;;;4.57;1.57;;;1.10;99.90;;;;;;5011655;28;20610;-62
2021/03/17 04:28:26;;;;;;;3.50;1.67;;;1.10;99.90;;;;;;5012213;28;20204;-62
2021/03/17 04:30:56;;;;;;;5.97;1.70;;;1.10;99.90;;;;;;5012310;28;20227;-62
2021/03/17 04:33:24;;;;;;;3.30;1.53;;;1.10;99.90;;;;;;5011715;28;20229;-61
2021/03/17 04:35:55;;;;;;;3.87;1.90;;;1.20;99.90;;;;;;5011319;28;20280;-62
2021/03/17 04:38:25;;;;;;;7.93;1.97;;;1.10;99.90;;;;;;4995409;28;20272;-62
2021/03/17 04:40:53;;;;;;;4.00;1.30;;;1.00;99.90;;;;;;4999480;28;20256;-62
2021/03/17 04:43:20;;;;;;;5.17;1.60;;;1.10;99.90;;;;;;5010974;28;20315;-62
2021/03/17 04:45:49;;;;;;;1.50;1.13;;;1.10;99.90;;;;;;5007769;28;20219;-62
2021/03/17 04:48:16;;;;;;;2.60;1.37;;;1.00;99.90;;;;;;5002528;28;20220;-62
2021/03/17 04:50:46;;;;;;;4.03;1.37;;;1.00;99.90;;;;;;5008575;28;20194;-62
2021/03/17 04:53:13;;;;;;;3.60;1.40;;;1.00;99.90;;;;;;4991627;28;20202;-62
2021/03/17 04:55:39;;;;;;;2.20;1.50;;;0.90;99.90;;;;;;4998277;28;20295;-63
2021/03/17 04:58:09;;;;;;;2.43;1.60;;;0.90;99.90;;;;;;4992769;28;20658;-63
2021/03/17 05:00:37;;;;;;;4.53;1.77;;;0.90;99.90;;;;;;4998629;28;20213;-63
2021/03/17 05:03:06;;;;;;;5.90;1.50;;;0.90;99.90;;;;;;5002026;28;20223;-63
2021/03/17 05:05:35;;;;;;;3.40;1.50;;;0.80;99.90;;;;;;4991951;28;20189;-62
2021/03/17 05:08:05;;;;;;;2.67;1.40;;;0.80;99.90;;;;;;5011225;28;20189;-62
2021/03/17 05:10:33;;;;;;;4.67;1.87;;;0.80;99.90;;;;;;5011084;28;20201;-62
2021/03/17 05:13:00;;;;;;;4.13;1.63;;;0.80;99.90;;;;;;4992472;28;20236;-62
2021/03/17 05:15:27;;;;;;;3.63;1.57;;;0.80;99.90;;;;;;5011575;28;20276;-62
2021/03/17 05:17:54;;;;;;;4.37;1.90;;;0.80;99.90;;;;;;5011207;28;20297;-62
2021/03/17 05:20:24;;;;;;;2.03;1.50;;;0.80;99.90;;;;;;5011483;28;20304;-62
2021/03/17 05:22:52;;;;;;;4.43;1.80;;;0.80;99.90;;;;;;4995778;28;20245;-62
2021/03/17 05:25:21;;;;;;;3.50;1.60;;;0.70;99.90;;;;;;4996391;28;20186;-62
2021/03/17 05:27:51;;;;;;;5.37;1.80;;;0.70;99.90;;;;;;5007736;28;20260;-63
2021/03/17 05:30:21;;;;;;;4.27;2.00;;;0.70;99.90;;;;;;4996101;28;20268;-62
2021/03/17 05:32:49;;;;;;;7.33;1.90;;;0.70;99.90;;;;;;5004639;28;20248;-64
2021/03/17 05:35:16;;;;;;;4.40;1.57;;;0.70;99.90;;;;;;5015575;28;20220;-62
2021/03/17 05:37:45;;;;;;;3.17;1.73;;;0.70;99.90;;;;;;5000322;28;20338;-62
2021/03/17 05:40:14;;;;;;;7.03;1.90;;;0.70;99.90;;;;;;4995646;28;20553;-63
2021/03/17 05:42:42;;;;;;;2.30;1.60;;;0.70;99.90;;;;;;4996078;28;20252;-62
2021/03/17 05:45:12;;;;;;;2.30;1.50;;;0.70;99.90;;;;;;5014816;28;20294;-63
2021/03/17 05:47:40;;;;;;;5.00;2.00;;;0.70;99.90;;;;;;5009141;28;20189;-63
2021/03/17 05:50:08;;;;;;;2.67;1.77;;;0.70;99.90;;;;;;4995706;28;20225;-62
2021/03/17 05:52:36;;;;;;;3.73;1.80;;;0.70;99.90;;;;;;5005672;28;20215;-62
2021/03/17 05:55:04;;;;;;;8.47;2.03;;;0.70;99.90;;;;;;5015581;28;20233;-62
2021/03/17 05:57:31;;;;;;;3.23;1.87;;;0.70;99.90;;;;;;4998131;28;20621;-61
2021/03/17 05:59:57;;;;;;;3.93;1.70;;;0.70;99.90;;;;;;5004117;28;20225;-62
2021/03/17 06:02:24;;;;;;;4.07;1.70;;;0.70;99.90;;;;;;5014367;28;20312;-64
2021/03/17 06:04:51;;;;;;;5.53;1.83;;;0.70;99.90;;;;;;5016344;28;20268;-63
2021/03/17 06:07:23;;;;;;;4.60;1.90;;;0.70;99.90;;;;;;5015287;28;20199;-63
2021/03/17 06:09:52;;;;;;;3.47;1.60;;;0.70;99.90;;;;;;5016192;28;20189;-64
2021/03/17 06:12:22;;;;;;;4.43;1.80;;;0.70;99.90;;;;;;4999754;28;20736;-64
2021/03/17 06:14:50;;;;;;;3.03;1.80;;;0.60;99.90;;;;;;5013143;28;20529;-64
2021/03/17 06:17:20;;;;;;;7.37;1.80;;;0.60;99.90;;;;;;5015172;28;20594;-64
2021/03/17 06:19:50;;;;;;;2.83;1.70;;;0.60;99.90;;;;;;5015873;28;20265;-63
2021/03/17 06:22:17;;;;;;;3.60;1.60;;;0.60;99.90;;;;;;4997554;28;20212;-64
2021/03/17 06:24:45;;;;;;;4.93;1.50;;;0.60;99.90;;;;;;4995675;28;20244;-64
2021/03/17 06:27:12;;;;;;;2.90;1.20;;;0.60;99.90;;;;;;4996920;28;20263;-64
2021/03/17 06:29:41;;;;;;;3.73;1.63;;;0.80;99.90;;;;;;5009610;28;20683;-64
2021/03/17 06:32:09;;;;;;;2.87;1.23;;;0.70;99.90;;;;;;5013773;28;20199;-64
2021/03/17 06:34:45;;;;;;;1.97;1.47;;;0.80;99.90;;;;;;5005560;28;20225;-64
2021/03/17 06:37:11;;;;;;;1.90;1.30;;;0.90;99.90;;;;;;4995178;28;20185;-64
2021/03/17 06:39:38;;;;;;;2.00;1.00;;;1.00;99.90;;;;;;5001737;28;20272;-64
2021/03/17 06:42:05;;;;;;;1.97;1.57;;;1.00;99.90;;;;;;5015088;28;20231;-63
2021/03/17 06:44:31;;;;;;;3.10;1.67;;;1.10;99.90;;;;;;5009184;28;20276;-63
2021/03/17 06:47:17;;;;;;;5.50;1.47;;;1.00;99.90;;;;;;4995419;28;20186;-64
2021/03/17 06:49:46;;;;;;;3.43;1.43;;;1.00;99.90;;;;;;5002095;28;20192;-63
2021/03/17 06:52:33;;;;;;;2.43;1.37;;;1.00;99.90;;;;;;5014317;28;20699;-64
2021/03/17 06:55:14;;;;;;;2.43;1.30;;;1.00;99.90;;;;;;5014224;28;20192;-64
2021/03/17 06:57:43;;;;;;;3.00;1.30;;;1.00;99.90;;;;;;5015042;28;20271;-64
2021/03/17 07:00:25;;;;;;;2.93;1.50;;;1.10;99.90;;;;;;5012256;28;20664;-63
2021/03/17 07:02:54;;;;;;;3.03;1.17;;;1.20;99.90;;;;;;5002046;28;20603;-64
2021/03/17 07:05:21;;;;;;;3.57;1.50;;;1.20;99.90;;;;;;5005255;28;20650;-61
2021/03/17 07:07:52;;;;;;;2.87;1.63;;;1.30;99.90;;;;;;4996873;28;20285;-64
2021/03/17 07:10:33;;;;;;;3.07;1.40;;;1.30;99.90;;;;;;5014538;28;20707;-64
2021/03/17 07:13:00;;;;;;;3.23;1.50;;;1.20;99.90;;;;;;5014564;28;20185;-63
2021/03/17 07:15:27;;;;;;;3.77;1.70;;;1.10;99.90;;;;;;5008926;28;20185;-64
2021/03/17 07:18:10;;;;;;;2.40;1.30;;;1.20;99.90;;;;;;4999388;28;20744;-63
2021/03/17 07:20:42;;;;;;;2.40;1.43;;;1.20;99.90;;;;;;4999604;28;20264;-63
2021/03/17 07:23:23;;;;;;;5.10;1.90;;;1.20;99.90;;;;;;5008729;28;20217;-64
2021/03/17 07:26:05;;;;;;;6.17;1.70;;;1.10;99.90;;;;;;5000405;28;20224;-64
2021/03/17 07:29:00;;;;;;;4.90;1.60;;;1.20;99.90;;;;;;4997630;28;20642;-63
2021/03/17 07:31:29;;;;;;;3.47;1.40;;;1.30;99.90;;;;;;5007528;28;20296;-65
2021/03/17 07:34:14;;;;;;;4.57;1.63;;;1.40;99.90;;;;;;4998033;28;20303;-63
2021/03/17 07:36:45;;;;;;;1.40;0.93;;;1.50;99.90;;;;;;5005968;28;20612;-62
2021/03/17 07:39:17;;;;;;;3.50;1.60;;;1.40;99.90;;;;;;5008472;28;20196;-63
2021/03/17 07:41:44;;;;;;;7.30;1.60;;;1.30;99.90;;;;;;5012494;28;20659;-63
2021/03/17 07:44:12;;;;;;;6.10;1.53;;;1.30;99.90;;;;;;5012046;28;20248;-63
2021/03/17 07:46:40;;;;;;;5.33;1.87;;;1.30;99.90;;;;;;5013208;28;20575;-62
2021/03/17 07:49:09;;;;;;;8.50;1.97;;;1.30;99.90;;;;;;5012386;28;20229;-63
2021/03/17 07:51:40;;;;;;;4.00;2.00;;;1.40;99.90;;;;;;4999453;28;20225;-64
2021/03/17 07:54:08;;;;;;;2.23;1.33;;;1.30;99.90;;;;;;4996303;28;20190;-63
2021/03/17 07:56:37;;;;;;;3.30;1.63;;;1.30;99.90;;;;;;5002921;28;20182;-62
2021/03/17 07:59:04;;;;;;;6.03;1.80;;;1.30;99.90;;;;;;5003588;28;20622;-61
2021/03/17 08:01:32;;;;;;;7.07;2.10;;;1.20;99.90;;;;;;5007231;28;20685;-63
2021/03/17 08:04:00;;;;;;;4.40;2.10;;;1.40;99.90;;;;;;4993073;28;20236;-62
2021/03/17 08:06:28;;;;;;;3.17;2.00;;;1.40;99.90;;;;;;5008694;28;20216;-61
2021/03/17 08:08:58;;;;;;;5.07;1.83;;;1.50;99.90;;;;;;5000230;28;20344;-62
2021/03/17 08:11:26;;;;;;;5.07;1.70;;;1.50;99.90;;;;;;5008026;28;20216;-61
2021/03/17 08:13:54;;;;;;;3.00;2.10;;;1.70;99.90;;;;;;5012698;28;20233;-62
2021/03/17 08:16:23;;;;;;;6.43;1.97;;;1.80;99.90;;;;;;5011070;28;20209;-62
2021/03/17 08:18:50;;;;;;;9.00;2.00;;;1.90;99.90;;;;;;5012863;28;20283;-62
2021/03/17 08:21:55;;;;;;;7.97;2.00;;;1.90;99.90;;;;;;5012507;28;20232;-62
2021/03/17 08:24:49;;;;;;;4.70;1.67;;;1.80;99.90;;;;;;5009571;28;20725;-63
2021/03/17 08:27:25;;;;;;;5.27;1.87;;;1.80;99.90;;;;;;4970079;28;20301;-62
2021/03/17 08:30:06;;;;;;;7.70;1.80;;;1.90;99.90;;;;;;4992929;28;20271;-62
2021/03/17 08:33:00;;;;;;;2.80;1.97;;;2.10;99.90;;;;;;4998518;28;20284;-62
2021/03/17 08:36:01;;;;;;;5.50;1.50;;;2.10;99.90;;;;;;5012633;28;20185;-61
2021/03/17 08:38:44;;;;;;;4.13;1.90;;;2.10;99.90;;;;;;5011693;28;20200;-63
2021/03/17 08:41:10;;;;;;;4.23;1.50;;;2.20;99.90;;;;;;5011518;28;20366;-61
2021/03/17 08:43:50;;;;;;;7.80;2.30;;;2.20;99.90;;;;;;5006531;28;20540;-62
2021/03/17 08:46:18;;;;;;;5.63;1.50;;;2.30;99.90;;;;;;5011237;28;20272;-62
2021/03/17 08:48:58;;;;;;;4.03;1.73;;;2.30;99.90;;;;;;4997530;28;20273;-63
2021/03/17 08:52:05;;;;;;;3.17;2.00;;;2.60;99.90;;;;;;5004931;28;20381;-62
2021/03/17 08:54:55;;;;;;;1.93;1.40;;;2.60;99.90;;;;;;5011902;28;20188;-62
2021/03/17 08:57:22;;;;;;;4.43;1.90;;;2.80;99.90;;;;;;5006048;28;20559;-61
2021/03/17 08:59:50;;;;;;;5.67;1.90;;;2.80;99.90;;;;;;5010800;28;20193;-62
2021/03/17 09:02:21;;;;;;;2.50;1.70;;;2.80;99.90;;;;;;5011874;28;20233;-62
2021/03/17 09:04:49;;;;;;;5.30;2.10;;;2.80;99.90;;;;;;4998409;28;20214;-61
2021/03/17 09:07:16;;;;;;;2.37;1.60;;;2.70;99.90;;;;;;5010147;28;20205;-62
2021/03/17 09:09:47;;;;;;;4.03;1.90;;;2.60;99.90;;;;;;4998866;28;20197;-62
2021/03/17 09:12:15;;;;;;;2.60;1.70;;;2.60;99.90;;;;;;5003177;28;20734;-62
2021/03/17 09:14:41;;;;;;;2.10;1.40;;;2.70;99.90;;;;;;5007290;28;20193;-63
2021/03/17 09:17:27;;;;;;;4.60;2.30;;;3.00;99.90;;;;;;5007696;28;20652;-62
2021/03/17 09:20:13;;;;;;;6.93;1.90;;;3.00;99.90;;;;;;5004719;28;20177;-64
2021/03/17 09:22:59;;;;;;;3.30;1.53;;;3.00;99.90;;;;;;5012031;28;20248;-62
2021/03/17 09:25:28;;;;;;;8.20;1.80;;;3.00;99.90;;;;;;5009550;28;20181;-63
2021/03/17 09:28:02;;;;;;;5.73;1.50;;;2.80;99.90;;;;;;5011023;28;20228;-60
2021/03/17 09:30:33;;;;;;;7.33;1.90;;;2.60;99.90;;;;;;5011725;28;20343;-62
2021/03/17 09:33:01;;;;;;;1.60;1.37;;;2.60;99.90;;;;;;5011885;28;20225;-62
2021/03/17 09:35:28;;;;;;;2.97;1.70;;;2.60;99.90;;;;;;5010770;28;20267;-63
2021/03/17 09:38:03;;;;;;;2.67;1.67;;;2.50;99.90;;;;;;4999565;28;20197;-62
2021/03/17 09:40:34;;;;;;;3.37;2.00;;;2.70;99.90;;;;;;5007191;28;20653;-65
2021/03/17 09:43:02;;;;;;;3.97;1.60;;;2.60;99.90;;;;;;5008013;28;20244;-61
2021/03/17 09:45:28;;;;;;;7.10;1.87;;;2.60;99.90;;;;;;5002515;28;20193;-64
2021/03/17 09:47:57;;;;;;;3.50;1.27;;;2.70;99.90;;;;;;5005789;28;20185;-62
2021/03/17 09:50:26;;;;;;;1.80;1.40;;;2.70;99.90;;;;;;5006811;28;20641;-63
2021/03/17 09:52:52;;;;;;;2.27;1.57;;;2.50;99.90;;;;;;4998127;28;20605;-61
2021/03/17 09:55:35;;;;;;;4.67;1.60;;;2.30;99.90;;;;;;5011818;28;20213;-61
2021/03/17 09:58:05;;;;;;;3.87;2.00;;;2.60;99.90;;;;;;5012470;28;20619;-62
2021/03/17 10:00:32;;;;;;;2.10;1.50;;;2.90;99.90;;;;;;5012586;28;20279;-62
2021/03/17 10:03:00;;;;;;;3.43;1.57;;;2.60;99.90;;;;;;5011548;28;20217;-61
2021/03/17 10:05:27;;;;;;;3.63;1.50;;;2.40;99.90;;;;;;5011598;28;20225;-61
2021/03/17 10:07:53;;;;;;;3.63;1.60;;;2.10;99.90;;;;;;5013375;28;20240;-61
2021/03/17 10:10:20;;;;;;;3.07;1.67;;;2.30;99.90;;;;;;5015206;28;20620;-62
2021/03/17 10:12:49;;;;;;;3.10;2.07;;;2.30;99.90;;;;;;5015167;28;20244;-60
2021/03/17 10:15:19;;;;;;;4.77;2.20;;;2.50;99.90;;;;;;5015316;28;20637;-61
2021/03/17 10:17:45;;;;;;;4.80;1.80;;;2.70;99.90;;;;;;5015011;28;20300;-61
2021/03/17 10:20:14;;;;;;;7.23;2.00;;;2.90;99.90;;;;;;5014867;28;20200;-63
2021/03/17 10:22:41;;;;;;;2.40;1.80;;;3.10;99.90;;;;;;5014772;28;20262;-61
2021/03/17 10:25:11;;;;;;;1.87;1.50;;;3.20;99.90;;;;;;5015189;28;20225;-63
2021/03/17 10:27:39;;;;;;;4.37;2.10;;;3.10;99.90;;;;;;5015146;28;20279;-61
2021/03/17 10:30:09;;;;;;;4.90;2.27;;;2.90;99.90;;;;;;5014359;28;20255;-60
2021/03/17 10:32:37;;;;;;;2.23;1.80;;;2.90;99.90;;;;;;5014303;28;20224;-62
2021/03/17 10:35:07;;;;;;;6.33;2.20;;;2.90;99.90;;;;;;5014486;28;20220;-62
2021/03/17 10:37:35;;;;;;;3.20;1.90;;;2.70;99.90;;;;;;5014622;28;20212;-61
2021/03/17 10:40:11;;;;;;;6.40;2.77;;;2.60;99.90;;;;;;5014636;28;20284;-63
2021/03/17 10:42:44;;;;;;;4.87;2.07;;;2.50;99.90;;;;;;5014189;28;20240;-60
2021/03/17 10:45:14;;;;;;;3.60;2.10;;;2.40;99.90;;;;;;5014423;28;20185;-62
2021/03/17 10:47:42;;;;;;;5.33;2.37;;;2.50;99.90;;;;;;5014722;28;20604;-61
2021/03/17 10:50:10;;;;;;;7.10;2.40;;;2.50;99.90;;;;;;5014556;28;20225;-60
2021/03/17 10:52:40;;;;;;;5.00;2.40;;;2.60;99.90;;;;;;5014415;28;20264;-63
2021/03/17 10:55:19;;;;;;;2.17;1.83;;;3.00;99.90;;;;;;5014295;28;20267;-62
2021/03/17 10:57:47;;;;;;;3.73;2.23;;;3.00;99.90;;;;;;5014524;28;20228;-63
2021/03/17 11:00:21;;;;;;;5.90;2.13;;;3.30;99.90;;;;;;5014956;28;20197;-62
2021/03/17 11:02:49;;;;;;;2.70;2.17;;;3.60;99.90;;;;;;5014384;28;20688;-62
2021/03/17 11:05:18;;;;;;;4.93;1.57;;;3.40;99.90;;;;;;5014577;28;20204;-63
2021/03/17 11:08:09;;;;;;;6.07;1.97;;;3.10;99.90;;;;;;5014606;28;20245;-61
2021/03/17 11:10:48;;;;;;;2.80;1.93;;;3.00;99.90;;;;;;5009520;28;20216;-62
2021/03/17 11:13:31;;;;;;;4.70;1.90;;;2.90;99.90;;;;;;5014344;28;20193;-63
2021/03/17 11:16:03;;;;;;;3.83;2.10;;;2.90;99.90;;;;;;5013879;28;20189;-63
2021/03/17 11:18:32;;;;;;;2.63;1.20;;;3.00;99.90;;;;;;5013903;28;20664;-62
2021/03/17 11:21:02;;;;;;;2.43;1.37;;;2.60;99.90;;;;;;5013383;28;20205;-62
2021/03/17 11:23:32;;;;;;;2.30;1.50;;;2.70;99.90;;;;;;5013581;28;20304;-61
2021/03/17 11:26:00;;;;;;;5.27;2.20;;;2.60;99.90;;;;;;5014211;28;20274;-63
2021/03/17 11:28:30;;;;;;;5.33;1.90;;;2.80;99.90;;;;;;5014082;28;20205;-61
2021/03/17 11:30:59;;;;;;;2.47;1.73;;;3.00;99.90;;;;;;5013880;28;20228;-62
2021/03/17 11:33:26;;;;;;;3.93;2.00;;;3.10;99.90;;;;;;5013517;28;20247;-62
2021/03/17 11:35:56;;;;;;;3.53;2.07;;;3.00;99.90;;;;;;5013991;28;20611;-61
2021/03/17 11:38:23;;;;;;;5.33;2.03;;;3.00;99.90;;;;;;5013251;28;20228;-61
2021/03/17 11:40:51;;;;;;;7.27;2.50;;;3.00;99.90;;;;;;5013919;28;20621;-62
2021/03/17 11:43:20;;;;;;;3.73;2.60;;;3.10;99.90;;;;;;5013166;28;20220;-62
2021/03/17 11:45:48;;;;;;;2.90;1.87;;;3.00;99.90;;;;;;5013585;28;20189;-62
2021/03/17 11:48:16;;;;;;;1.83;1.43;;;3.00;99.90;;;;;;5013356;28;20201;-62
2021/03/17 11:50:44;;;;;;;3.67;2.57;;;2.90;99.90;;;;;;5013163;28;20228;-61
2021/03/17 11:53:13;;;;;;;5.10;2.00;;;3.00;99.90;;;;;;5013045;28;20567;-62
2021/03/17 11:55:39;;;;;;;3.97;1.97;;;3.30;99.90;;;;;;5007799;28;20189;-63
2021/03/17 11:58:06;;;;;;;1.87;1.53;;;3.10;99.90;;;;;;4993623;28;20229;-62
2021/03/17 12:00:33;;;;;;;5.03;1.83;;;3.20;99.90;;;;;;4996031;28;20221;-63
2021/03/17 12:02:59;;;;;;;5.13;2.00;;;3.20;99.90;;;;;;4993909;28;20244;-61
2021/03/17 12:05:26;;;;;;;3.53;1.83;;;3.30;99.90;;;;;;4993374;28;20225;-61
2021/03/17 12:07:53;;;;;;;2.57;1.60;;;3.40;99.90;;;;;;4998363;28;20196;-62
2021/03/17 12:10:20;;;;;;;2.57;1.80;;;3.50;99.90;;;;;;5012470;28;20224;-61
2021/03/17 12:12:47;;;;;;;2.30;1.53;;;3.50;99.90;;;;;;5009536;28;20335;-62
2021/03/17 12:15:16;;;;;;;3.40;2.00;;;3.30;99.90;;;;;;4999228;28;20316;-60
2021/03/17 12:17:44;;;;;;;3.40;2.03;;;3.00;99.90;;;;;;5004584;28;20680;-60
2021/03/17 12:20:12;;;;;;;4.33;1.93;;;3.10;99.90;;;;;;4993327;28;20229;-60
2021/03/17 12:22:38;;;;;;;1.40;1.30;;;2.90;99.90;;;;;;4993091;28;20333;-61
2021/03/17 12:25:07;;;;;;;2.70;1.97;;;2.70;99.90;;;;;;5005295;28;20327;-61
2021/03/17 12:27:35;;;;;;;3.80;2.50;;;2.70;99.90;;;;;;5012457;28;20283;-61
2021/03/17 12:30:03;;;;;;;2.80;1.87;;;2.80;99.90;;;;;;5011293;28;20220;-62
2021/03/17 12:32:29;;;;;;;5.23;2.67;;;2.90;99.90;;;;;;5011140;28;20200;-61
2021/03/17 12:34:56;;;;;;;2.53;1.60;;;2.90;99.90;;;;;;5012628;28;20227;-62
2021/03/17 12:37:22;;;;;;;3.53;1.93;;;2.60;99.90;;;;;;5002692;28;20230;-61
2021/03/17 12:39:49;;;;;;;5.13;2.40;;;2.40;99.90;;;;;;5002112;28;20228;-62
2021/03/17 12:42:15;;;;;;;2.13;1.77;;;2.50;99.90;;;;;;4995721;28;20284;-61
2021/03/17 12:44:42;;;;;;;3.07;2.53;;;2.60;99.90;;;;;;4994692;28;20226;-62
2021/03/17 12:47:09;;;;;;;5.57;2.50;;;2.40;99.90;;;;;;5001553;28;20312;-61
2021/03/17 12:49:36;;;;;;;4.97;2.33;;;2.40;99.90;;;;;;5011266;28;20201;-61
2021/03/17 12:52:04;;;;;;;3.80;2.40;;;2.50;99.90;;;;;;5011216;28;20189;-62
2021/03/17 12:54:31;;;;;;;3.17;2.20;;;2.60;99.90;;;;;;5007832;28;20284;-61
2021/03/17 12:56:57;;;;;;;3.40;2.10;;;2.60;99.90;;;;;;5012065;28;20208;-62
2021/03/17 12:59:24;;;;;;;2.67;2.00;;;2.50;99.90;;;;;;5004242;28;20239;-62
2021/03/17 13:01:51;;;;;;;5.73;2.50;;;2.40;99.90;;;;;;5008923;28;20193;-65
2021/03/17 13:04:17;;;;;;;3.67;1.70;;;2.60;99.90;;;;;;5003893;28;20678;-62
2021/03/17 13:06:44;;;;;;;5.27;2.30;;;2.60;99.90;;;;;;5000080;28;20189;-63
2021/03/17 13:09:10;;;;;;;5.47;2.60;;;2.60;99.90;;;;;;5008188;28;20240;-62
2021/03/17 13:11:38;;;;;;;9.63;2.90;;;2.40;99.90;;;;;;4997266;28;20233;-62